Huvudsida
METAR-TAF:

METAR-TAF

Flygplatser :

Xi'an Xianyang International Airport

Xi'an, Kina

latitud: 34-26N, longitud: 108-45E, höjd: 479 m

Aktuellt väderrapport

Denna rapport gjordes för 57 minuter sedan, klockan 08:00 UTC
Vind 4 kt från syd i byarna ända upp till 14 kt, varierande mellan sydost och väst/sydväst
Temperatur 15°C
Fuktighet 20%
Tryck 1024 hPa
Sikt 10 km eller mer
Inga moln under 1 500 m eller inga cumulonimbus

METAR: ZLXY 160800Z 19002G07MPS 140V250 CAVOK 15/M08 Q1024 NOSIG

Tid: 16:57 (08:57 UTC)

Väderprognos

Denna rapport gjordes för 5 timmar och 45 minuter sedan, klockan 03:12 UTC
Prognos gäller från 16 kl. 06 UTC till 17 kl. 06 UTC
Vind 6 kt från sydväst
Sikt: 4000 m
torrdis

TAF: ZLXY 160312Z 1606/1706 23003MPS 4000 HZ NSC TX13/1608Z TNM09/23Z

Aktuella väderrapporter och prognoser från 4000 flygplatser (METAR- och TAF-rapporter).

De tillgängliga stationerna syns som gula och röda prickar på kartan.

För musen över prickarna för att se namnen på stationerna.

Klicka sedan för att få väderrapporter och prognoser.

För att ändra kartan: Klicka på de gröna knapparna med ett svart kors på för att zooma in; den gröna knappen med ett streck på för att zooma ut; eller på de gröna pilarna för angränsande kartor.


METAR-TAF: